sensor_id;sensor_type;location;lat;lon;timestamp;temperature;humidity
15630;DHT22;7914;50.842;0.166;2023-06-22T00:00:52;14.80;100.00
15630;DHT22;7914;50.842;0.166;2023-06-22T00:03:19;14.80;100.00
15630;DHT22;7914;50.842;0.166;2023-06-22T00:05:49;14.80;100.00
15630;DHT22;7914;50.842;0.166;2023-06-22T00:08:15;14.70;100.00
15630;DHT22;7914;50.842;0.166;2023-06-22T00:10:42;14.70;100.00
15630;DHT22;7914;50.842;0.166;2023-06-22T00:13:08;14.70;100.00
15630;DHT22;7914;50.842;0.166;2023-06-22T00:15:35;14.70;100.00
15630;DHT22;7914;50.842;0.166;2023-06-22T00:18:01;14.70;100.00
15630;DHT22;7914;50.842;0.166;2023-06-22T00:20:28;14.70;100.00
15630;DHT22;7914;50.842;0.166;2023-06-22T00:22:58;14.70;100.00
15630;DHT22;7914;50.842;0.166;2023-06-22T00:25:24;14.70;100.00
15630;DHT22;7914;50.842;0.166;2023-06-22T00:27:50;14.60;100.00
15630;DHT22;7914;50.842;0.166;2023-06-22T00:30:17;14.50;100.00
15630;DHT22;7914;50.842;0.166;2023-06-22T00:32:43;14.50;100.00
15630;DHT22;7914;50.842;0.166;2023-06-22T00:35:10;14.40;100.00
15630;DHT22;7914;50.842;0.166;2023-06-22T00:37:36;14.30;100.00
15630;DHT22;7914;50.842;0.166;2023-06-22T00:40:03;14.30;100.00
15630;DHT22;7914;50.842;0.166;2023-06-22T00:42:30;14.30;100.00
15630;DHT22;7914;50.842;0.166;2023-06-22T00:44:56;14.20;100.00
15630;DHT22;7914;50.842;0.166;2023-06-22T00:47:21;14.20;100.00
15630;DHT22;7914;50.842;0.166;2023-06-22T00:49:49;14.20;100.00
15630;DHT22;7914;50.842;0.166;2023-06-22T00:52:20;14.20;100.00
15630;DHT22;7914;50.842;0.166;2023-06-22T00:54:48;14.20;100.00
15630;DHT22;7914;50.842;0.166;2023-06-22T00:57:14;14.20;100.00
15630;DHT22;7914;50.842;0.166;2023-06-22T00:59:48;14.20;100.00
15630;DHT22;7914;50.842;0.166;2023-06-22T01:02:14;14.10;100.00
15630;DHT22;7914;50.842;0.166;2023-06-22T01:04:40;14.00;100.00
15630;DHT22;7914;50.842;0.166;2023-06-22T01:09:35;14.00;100.00
15630;DHT22;7914;50.842;0.166;2023-06-22T01:12:07;14.00;100.00
15630;DHT22;7914;50.842;0.166;2023-06-22T01:14:58;14.00;100.00
15630;DHT22;7914;50.842;0.166;2023-06-22T01:17:27;13.90;100.00
15630;DHT22;7914;50.842;0.166;2023-06-22T01:19:55;13.70;100.00
15630;DHT22;7914;50.842;0.166;2023-06-22T01:22:28;13.70;100.00
15630;DHT22;7914;50.842;0.166;2023-06-22T01:25:19;13.60;100.00
15630;DHT22;7914;50.842;0.166;2023-06-22T01:30:33;13.70;100.00
15630;DHT22;7914;50.842;0.166;2023-06-22T01:33:00;13.70;100.00
15630;DHT22;7914;50.842;0.166;2023-06-22T01:35:27;13.90;100.00
15630;DHT22;7914;50.842;0.166;2023-06-22T01:37:54;13.90;100.00
15630;DHT22;7914;50.842;0.166;2023-06-22T01:40:21;13.90;100.00
15630;DHT22;7914;50.842;0.166;2023-06-22T01:42:48;14.00;100.00
15630;DHT22;7914;50.842;0.166;2023-06-22T01:45:14;14.00;100.00
15630;DHT22;7914;50.842;0.166;2023-06-22T01:47:41;14.00;100.00
15630;DHT22;7914;50.842;0.166;2023-06-22T01:50:07;14.00;100.00
15630;DHT22;7914;50.842;0.166;2023-06-22T01:52:33;14.10;100.00
15630;DHT22;7914;50.842;0.166;2023-06-22T01:55:00;14.20;100.00
15630;DHT22;7914;50.842;0.166;2023-06-22T01:57:26;14.20;100.00
15630;DHT22;7914;50.842;0.166;2023-06-22T02:00:02;14.20;100.00
15630;DHT22;7914;50.842;0.166;2023-06-22T02:05:12;14.20;100.00
15630;DHT22;7914;50.842;0.166;2023-06-22T02:07:46;14.30;100.00
15630;DHT22;7914;50.842;0.166;2023-06-22T02:10:14;14.40;100.00
15630;DHT22;7914;50.842;0.166;2023-06-22T02:12:42;14.60;100.00
15630;DHT22;7914;50.842;0.166;2023-06-22T02:15:10;14.70;100.00
15630;DHT22;7914;50.842;0.166;2023-06-22T02:17:36;14.70;100.00
15630;DHT22;7914;50.842;0.166;2023-06-22T02:20:03;14.80;100.00
15630;DHT22;7914;50.842;0.166;2023-06-22T02:22:34;14.80;100.00
15630;DHT22;7914;50.842;0.166;2023-06-22T02:25:00;14.80;100.00
15630;DHT22;7914;50.842;0.166;2023-06-22T02:27:25;14.80;100.00
15630;DHT22;7914;50.842;0.166;2023-06-22T02:29:51;14.80;100.00
15630;DHT22;7914;50.842;0.166;2023-06-22T02:32:17;14.90;100.00
15630;DHT22;7914;50.842;0.166;2023-06-22T02:34:43;14.80;100.00
15630;DHT22;7914;50.842;0.166;2023-06-22T02:37:13;14.80;100.00
15630;DHT22;7914;50.842;0.166;2023-06-22T02:39:42;14.80;100.00
15630;DHT22;7914;50.842;0.166;2023-06-22T02:42:08;14.80;100.00
15630;DHT22;7914;50.842;0.166;2023-06-22T02:44:36;14.80;100.00
15630;DHT22;7914;50.842;0.166;2023-06-22T02:47:02;14.80;100.00
15630;DHT22;7914;50.842;0.166;2023-06-22T02:49:28;14.80;100.00
15630;DHT22;7914;50.842;0.166;2023-06-22T02:51:53;14.80;100.00
15630;DHT22;7914;50.842;0.166;2023-06-22T02:54:20;14.80;100.00
15630;DHT22;7914;50.842;0.166;2023-06-22T02:56:46;14.80;100.00
15630;DHT22;7914;50.842;0.166;2023-06-22T02:59:13;14.80;100.00
15630;DHT22;7914;50.842;0.166;2023-06-22T03:01:39;14.80;100.00
15630;DHT22;7914;50.842;0.166;2023-06-22T03:04:08;14.70;100.00
15630;DHT22;7914;50.842;0.166;2023-06-22T03:06:34;14.70;100.00
15630;DHT22;7914;50.842;0.166;2023-06-22T03:09:04;14.70;100.00
15630;DHT22;7914;50.842;0.166;2023-06-22T03:11:31;14.70;100.00
15630;DHT22;7914;50.842;0.166;2023-06-22T03:13:57;14.50;100.00
15630;DHT22;7914;50.842;0.166;2023-06-22T03:16:23;14.50;100.00
15630;DHT22;7914;50.842;0.166;2023-06-22T03:18:49;14.50;100.00
15630;DHT22;7914;50.842;0.166;2023-06-22T03:21:15;14.60;100.00
15630;DHT22;7914;50.842;0.166;2023-06-22T03:23:42;14.60;100.00
15630;DHT22;7914;50.842;0.166;2023-06-22T03:26:18;14.60;100.00
15630;DHT22;7914;50.842;0.166;2023-06-22T03:28:43;14.60;100.00
15630;DHT22;7914;50.842;0.166;2023-06-22T03:31:09;14.50;100.00
15630;DHT22;7914;50.842;0.166;2023-06-22T03:33:35;14.40;100.00
15630;DHT22;7914;50.842;0.166;2023-06-22T03:36:00;14.50;100.00
15630;DHT22;7914;50.842;0.166;2023-06-22T03:38:26;14.50;100.00
15630;DHT22;7914;50.842;0.166;2023-06-22T03:40:52;14.50;100.00
15630;DHT22;7914;50.842;0.166;2023-06-22T03:43:17;14.60;100.00
15630;DHT22;7914;50.842;0.166;2023-06-22T03:45:43;14.60;100.00
15630;DHT22;7914;50.842;0.166;2023-06-22T03:48:11;14.60;100.00
15630;DHT22;7914;50.842;0.166;2023-06-22T03:50:37;14.50;100.00
15630;DHT22;7914;50.842;0.166;2023-06-22T03:53:03;14.60;100.00
15630;DHT22;7914;50.842;0.166;2023-06-22T03:55:28;14.60;100.00
15630;DHT22;7914;50.842;0.166;2023-06-22T03:57:54;14.60;100.00
15630;DHT22;7914;50.842;0.166;2023-06-22T04:00:23;14.70;100.00
15630;DHT22;7914;50.842;0.166;2023-06-22T04:02:48;14.70;100.00
15630;DHT22;7914;50.842;0.166;2023-06-22T04:05:14;14.60;100.00
15630;DHT22;7914;50.842;0.166;2023-06-22T04:07:40;14.70;100.00
15630;DHT22;7914;50.842;0.166;2023-06-22T04:10:06;14.70;100.00
15630;DHT22;7914;50.842;0.166;2023-06-22T04:12:32;14.80;100.00
15630;DHT22;7914;50.842;0.166;2023-06-22T04:14:57;14.80;100.00
15630;DHT22;7914;50.842;0.166;2023-06-22T04:17:23;14.80;100.00
15630;DHT22;7914;50.842;0.166;2023-06-22T04:19:51;14.70;100.00
15630;DHT22;7914;50.842;0.166;2023-06-22T04:22:16;14.70;100.00
15630;DHT22;7914;50.842;0.166;2023-06-22T04:24:43;14.70;100.00
15630;DHT22;7914;50.842;0.166;2023-06-22T04:27:09;14.70;100.00
15630;DHT22;7914;50.842;0.166;2023-06-22T04:29:35;14.80;100.00
15630;DHT22;7914;50.842;0.166;2023-06-22T04:32:01;14.90;100.00
15630;DHT22;7914;50.842;0.166;2023-06-22T04:34:31;14.90;100.00
15630;DHT22;7914;50.842;0.166;2023-06-22T04:36:57;14.90;100.00
15630;DHT22;7914;50.842;0.166;2023-06-22T04:39:23;15.00;100.00
15630;DHT22;7914;50.842;0.166;2023-06-22T04:41:49;15.00;100.00
15630;DHT22;7914;50.842;0.166;2023-06-22T04:44:17;15.10;100.00
15630;DHT22;7914;50.842;0.166;2023-06-22T04:46:55;15.00;100.00
15630;DHT22;7914;50.842;0.166;2023-06-22T04:49:26;15.10;100.00
15630;DHT22;7914;50.842;0.166;2023-06-22T04:52:09;15.20;100.00
15630;DHT22;7914;50.842;0.166;2023-06-22T04:54:36;15.20;100.00
15630;DHT22;7914;50.842;0.166;2023-06-22T04:57:04;15.30;100.00
15630;DHT22;7914;50.842;0.166;2023-06-22T04:59:31;15.30;100.00
15630;DHT22;7914;50.842;0.166;2023-06-22T05:02:01;15.40;100.00
15630;DHT22;7914;50.842;0.166;2023-06-22T05:04:28;15.60;100.00
15630;DHT22;7914;50.842;0.166;2023-06-22T05:06:56;15.50;100.00
15630;DHT22;7914;50.842;0.166;2023-06-22T05:09:22;15.60;100.00
15630;DHT22;7914;50.842;0.166;2023-06-22T05:11:50;15.60;100.00
15630;DHT22;7914;50.842;0.166;2023-06-22T05:14:17;15.70;100.00
15630;DHT22;7914;50.842;0.166;2023-06-22T05:16:43;15.60;100.00
15630;DHT22;7914;50.842;0.166;2023-06-22T05:19:09;15.70;100.00
15630;DHT22;7914;50.842;0.166;2023-06-22T05:21:35;15.80;100.00
15630;DHT22;7914;50.842;0.166;2023-06-22T05:24:01;15.90;100.00
15630;DHT22;7914;50.842;0.166;2023-06-22T05:26:29;15.90;100.00
15630;DHT22;7914;50.842;0.166;2023-06-22T05:28:55;15.90;100.00
15630;DHT22;7914;50.842;0.166;2023-06-22T05:31:21;16.00;100.00
15630;DHT22;7914;50.842;0.166;2023-06-22T05:33:47;16.20;100.00
15630;DHT22;7914;50.842;0.166;2023-06-22T05:36:13;16.30;100.00
15630;DHT22;7914;50.842;0.166;2023-06-22T05:38:39;16.20;100.00
15630;DHT22;7914;50.842;0.166;2023-06-22T05:41:05;16.20;100.00
15630;DHT22;7914;50.842;0.166;2023-06-22T05:43:31;16.20;100.00
15630;DHT22;7914;50.842;0.166;2023-06-22T05:45:58;16.30;100.00
15630;DHT22;7914;50.842;0.166;2023-06-22T05:48:24;16.40;100.00
15630;DHT22;7914;50.842;0.166;2023-06-22T05:50:50;16.50;100.00
15630;DHT22;7914;50.842;0.166;2023-06-22T05:53:15;16.50;100.00
15630;DHT22;7914;50.842;0.166;2023-06-22T05:55:41;16.60;100.00
15630;DHT22;7914;50.842;0.166;2023-06-22T05:58:08;16.60;100.00
15630;DHT22;7914;50.842;0.166;2023-06-22T06:00:35;16.60;100.00
15630;DHT22;7914;50.842;0.166;2023-06-22T06:03:01;16.60;100.00
15630;DHT22;7914;50.842;0.166;2023-06-22T06:05:32;16.50;100.00
15630;DHT22;7914;50.842;0.166;2023-06-22T06:07:59;16.50;100.00
15630;DHT22;7914;50.842;0.166;2023-06-22T06:10:25;16.50;100.00
15630;DHT22;7914;50.842;0.166;2023-06-22T06:12:52;16.50;100.00
15630;DHT22;7914;50.842;0.166;2023-06-22T06:15:18;16.50;100.00
15630;DHT22;7914;50.842;0.166;2023-06-22T06:17:51;16.50;100.00
15630;DHT22;7914;50.842;0.166;2023-06-22T06:20:22;16.60;100.00
15630;DHT22;7914;50.842;0.166;2023-06-22T06:22:49;16.60;100.00
15630;DHT22;7914;50.842;0.166;2023-06-22T06:25:15;16.70;100.00
15630;DHT22;7914;50.842;0.166;2023-06-22T06:27:46;16.70;100.00
15630;DHT22;7914;50.842;0.166;2023-06-22T06:30:13;16.70;100.00
15630;DHT22;7914;50.842;0.166;2023-06-22T06:32:39;16.80;100.00
15630;DHT22;7914;50.842;0.166;2023-06-22T06:35:09;17.00;100.00
15630;DHT22;7914;50.842;0.166;2023-06-22T06:37:43;17.00;100.00
15630;DHT22;7914;50.842;0.166;2023-06-22T06:40:10;17.10;100.00
15630;DHT22;7914;50.842;0.166;2023-06-22T06:42:38;17.10;100.00
15630;DHT22;7914;50.842;0.166;2023-06-22T06:45:06;17.00;100.00
15630;DHT22;7914;50.842;0.166;2023-06-22T06:47:32;17.20;100.00
15630;DHT22;7914;50.842;0.166;2023-06-22T06:49:58;17.30;100.00
15630;DHT22;7914;50.842;0.166;2023-06-22T06:52:24;17.40;100.00
15630;DHT22;7914;50.842;0.166;2023-06-22T06:54:49;17.50;100.00
15630;DHT22;7914;50.842;0.166;2023-06-22T06:57:17;17.60;100.00
15630;DHT22;7914;50.842;0.166;2023-06-22T06:59:43;17.70;100.00
15630;DHT22;7914;50.842;0.166;2023-06-22T07:02:09;17.70;100.00
15630;DHT22;7914;50.842;0.166;2023-06-22T07:04:34;17.70;100.00
15630;DHT22;7914;50.842;0.166;2023-06-22T07:07:02;18.00;100.00
15630;DHT22;7914;50.842;0.166;2023-06-22T07:09:27;18.20;100.00
15630;DHT22;7914;50.842;0.166;2023-06-22T07:11:54;18.70;100.00
15630;DHT22;7914;50.842;0.166;2023-06-22T07:14:20;19.00;100.00
15630;DHT22;7914;50.842;0.166;2023-06-22T07:16:46;19.50;100.00
15630;DHT22;7914;50.842;0.166;2023-06-22T07:19:12;20.00;98.00
15630;DHT22;7914;50.842;0.166;2023-06-22T07:21:38;20.00;96.10
15630;DHT22;7914;50.842;0.166;2023-06-22T07:24:06;20.20;96.10
15630;DHT22;7914;50.842;0.166;2023-06-22T07:26:32;20.60;94.80
15630;DHT22;7914;50.842;0.166;2023-06-22T07:28:58;21.30;92.20
15630;DHT22;7914;50.842;0.166;2023-06-22T07:31:25;21.50;88.30
15630;DHT22;7914;50.842;0.166;2023-06-22T07:33:51;21.60;88.60
15630;DHT22;7914;50.842;0.166;2023-06-22T07:36:17;21.60;87.80
15630;DHT22;7914;50.842;0.166;2023-06-22T07:38:43;21.80;88.20
15630;DHT22;7914;50.842;0.166;2023-06-22T07:41:08;21.90;86.80
15630;DHT22;7914;50.842;0.166;2023-06-22T07:43:34;21.90;86.20
15630;DHT22;7914;50.842;0.166;2023-06-22T07:46:05;22.10;86.30
15630;DHT22;7914;50.842;0.166;2023-06-22T07:48:32;22.40;84.30
15630;DHT22;7914;50.842;0.166;2023-06-22T07:50:58;22.60;83.40
15630;DHT22;7914;50.842;0.166;2023-06-22T07:53:26;22.90;82.70
15630;DHT22;7914;50.842;0.166;2023-06-22T07:55:53;23.20;82.40
15630;DHT22;7914;50.842;0.166;2023-06-22T07:58:19;23.00;79.30
15630;DHT22;7914;50.842;0.166;2023-06-22T08:00:46;23.00;82.10
15630;DHT22;7914;50.842;0.166;2023-06-22T08:03:12;23.10;80.40
15630;DHT22;7914;50.842;0.166;2023-06-22T08:05:39;23.20;81.10
15630;DHT22;7914;50.842;0.166;2023-06-22T08:08:05;23.30;81.30
15630;DHT22;7914;50.842;0.166;2023-06-22T08:10:31;23.00;79.50
15630;DHT22;7914;50.842;0.166;2023-06-22T08:12:57;22.70;82.10
15630;DHT22;7914;50.842;0.166;2023-06-22T08:15:22;22.70;83.20
15630;DHT22;7914;50.842;0.166;2023-06-22T08:17:48;22.80;82.50
15630;DHT22;7914;50.842;0.166;2023-06-22T08:20:14;22.80;81.60
15630;DHT22;7914;50.842;0.166;2023-06-22T08:22:43;22.90;81.50
15630;DHT22;7914;50.842;0.166;2023-06-22T08:25:09;23.30;81.00
15630;DHT22;7914;50.842;0.166;2023-06-22T08:27:35;23.10;79.10
15630;DHT22;7914;50.842;0.166;2023-06-22T08:30:02;23.10;80.80
15630;DHT22;7914;50.842;0.166;2023-06-22T08:32:28;22.80;79.00
15630;DHT22;7914;50.842;0.166;2023-06-22T08:34:55;22.60;81.50
15630;DHT22;7914;50.842;0.166;2023-06-22T08:37:21;22.70;82.70
15630;DHT22;7914;50.842;0.166;2023-06-22T08:39:59;22.90;81.60
15630;DHT22;7914;50.842;0.166;2023-06-22T08:42:36;22.90;80.80
15630;DHT22;7914;50.842;0.166;2023-06-22T08:45:02;22.70;82.30
15630;DHT22;7914;50.842;0.166;2023-06-22T08:47:28;22.80;82.30
15630;DHT22;7914;50.842;0.166;2023-06-22T08:49:54;23.20;82.00
15630;DHT22;7914;50.842;0.166;2023-06-22T08:52:20;23.30;79.90
15630;DHT22;7914;50.842;0.166;2023-06-22T08:54:48;23.40;78.70
15630;DHT22;7914;50.842;0.166;2023-06-22T08:57:14;23.40;77.70
15630;DHT22;7914;50.842;0.166;2023-06-22T08:59:41;23.60;76.30
15630;DHT22;7914;50.842;0.166;2023-06-22T09:02:07;23.80;74.40
15630;DHT22;7914;50.842;0.166;2023-06-22T09:04:33;23.70;71.10
15630;DHT22;7914;50.842;0.166;2023-06-22T09:07:02;23.70;73.60
15630;DHT22;7914;50.842;0.166;2023-06-22T09:09:28;23.70;75.00
15630;DHT22;7914;50.842;0.166;2023-06-22T09:11:54;23.70;74.60
15630;DHT22;7914;50.842;0.166;2023-06-22T09:14:20;24.10;75.70
15630;DHT22;7914;50.842;0.166;2023-06-22T09:16:45;24.30;76.10
15630;DHT22;7914;50.842;0.166;2023-06-22T09:19:11;24.40;73.70
15630;DHT22;7914;50.842;0.166;2023-06-22T09:21:37;24.50;69.80
15630;DHT22;7914;50.842;0.166;2023-06-22T09:24:03;24.70;70.50
15630;DHT22;7914;50.842;0.166;2023-06-22T09:26:29;24.70;67.50
15630;DHT22;7914;50.842;0.166;2023-06-22T09:28:55;24.70;67.60
15630;DHT22;7914;50.842;0.166;2023-06-22T09:31:21;24.60;68.60
15630;DHT22;7914;50.842;0.166;2023-06-22T09:33:55;24.80;69.10
15630;DHT22;7914;50.842;0.166;2023-06-22T09:36:21;25.10;66.80
15630;DHT22;7914;50.842;0.166;2023-06-22T09:38:48;25.20;63.60
15630;DHT22;7914;50.842;0.166;2023-06-22T09:41:14;25.30;62.10
15630;DHT22;7914;50.842;0.166;2023-06-22T09:43:39;25.30;65.30
15630;DHT22;7914;50.842;0.166;2023-06-22T09:46:05;25.40;65.60
15630;DHT22;7914;50.842;0.166;2023-06-22T09:48:32;25.50;63.30
15630;DHT22;7914;50.842;0.166;2023-06-22T09:50:58;25.60;61.20
15630;DHT22;7914;50.842;0.166;2023-06-22T09:53:23;25.40;61.30
15630;DHT22;7914;50.842;0.166;2023-06-22T09:55:49;25.60;60.60
15630;DHT22;7914;50.842;0.166;2023-06-22T09:58:15;25.50;59.90
15630;DHT22;7914;50.842;0.166;2023-06-22T10:00:40;25.40;61.60
15630;DHT22;7914;50.842;0.166;2023-06-22T10:03:07;25.50;58.60
15630;DHT22;7914;50.842;0.166;2023-06-22T10:05:33;25.60;59.20
15630;DHT22;7914;50.842;0.166;2023-06-22T10:07:58;25.60;59.00
15630;DHT22;7914;50.842;0.166;2023-06-22T10:10:24;25.80;56.90
15630;DHT22;7914;50.842;0.166;2023-06-22T10:12:57;25.80;61.40
15630;DHT22;7914;50.842;0.166;2023-06-22T10:15:23;25.90;54.40
15630;DHT22;7914;50.842;0.166;2023-06-22T10:17:49;25.70;55.30
15630;DHT22;7914;50.842;0.166;2023-06-22T10:20:15;25.70;57.60
15630;DHT22;7914;50.842;0.166;2023-06-22T10:22:44;25.90;57.60
15630;DHT22;7914;50.842;0.166;2023-06-22T10:25:12;26.10;55.80
15630;DHT22;7914;50.842;0.166;2023-06-22T10:27:38;26.10;53.20
15630;DHT22;7914;50.842;0.166;2023-06-22T10:30:11;26.10;52.50
15630;DHT22;7914;50.842;0.166;2023-06-22T10:32:38;26.10;54.90
15630;DHT22;7914;50.842;0.166;2023-06-22T10:35:04;26.10;56.90
15630;DHT22;7914;50.842;0.166;2023-06-22T10:37:30;26.20;57.30
15630;DHT22;7914;50.842;0.166;2023-06-22T10:39:56;26.30;57.60
15630;DHT22;7914;50.842;0.166;2023-06-22T10:42:22;26.30;56.80
15630;DHT22;7914;50.842;0.166;2023-06-22T10:44:48;26.60;56.60
15630;DHT22;7914;50.842;0.166;2023-06-22T10:47:14;26.80;55.90
15630;DHT22;7914;50.842;0.166;2023-06-22T10:49:40;26.90;53.50
15630;DHT22;7914;50.842;0.166;2023-06-22T10:52:09;26.90;50.60
15630;DHT22;7914;50.842;0.166;2023-06-22T10:54:36;26.60;51.10
15630;DHT22;7914;50.842;0.166;2023-06-22T10:57:02;26.40;48.50
15630;DHT22;7914;50.842;0.166;2023-06-22T10:59:29;26.30;52.90
15630;DHT22;7914;50.842;0.166;2023-06-22T11:01:58;26.40;53.50
15630;DHT22;7914;50.842;0.166;2023-06-22T11:04:24;26.70;55.50
15630;DHT22;7914;50.842;0.166;2023-06-22T11:06:50;27.00;53.70
15630;DHT22;7914;50.842;0.166;2023-06-22T11:09:17;26.70;51.60
15630;DHT22;7914;50.842;0.166;2023-06-22T11:11:50;26.50;55.20
15630;DHT22;7914;50.842;0.166;2023-06-22T11:14:16;26.80;55.40
15630;DHT22;7914;50.842;0.166;2023-06-22T11:16:42;26.70;53.70
15630;DHT22;7914;50.842;0.166;2023-06-22T11:19:08;26.70;55.20
15630;DHT22;7914;50.842;0.166;2023-06-22T11:21:33;26.90;56.60
15630;DHT22;7914;50.842;0.166;2023-06-22T11:23:59;26.70;52.90
15630;DHT22;7914;50.842;0.166;2023-06-22T11:26:25;26.70;55.20
15630;DHT22;7914;50.842;0.166;2023-06-22T11:28:54;26.90;54.30
15630;DHT22;7914;50.842;0.166;2023-06-22T11:31:20;27.00;53.80
15630;DHT22;7914;50.842;0.166;2023-06-22T11:33:46;26.90;53.60
15630;DHT22;7914;50.842;0.166;2023-06-22T11:36:14;27.10;57.50
15630;DHT22;7914;50.842;0.166;2023-06-22T11:38:40;27.30;56.20
15630;DHT22;7914;50.842;0.166;2023-06-22T11:41:09;27.30;54.30
15630;DHT22;7914;50.842;0.166;2023-06-22T11:43:36;27.30;53.40
15630;DHT22;7914;50.842;0.166;2023-06-22T11:46:03;27.20;54.30
15630;DHT22;7914;50.842;0.166;2023-06-22T11:48:29;27.00;54.50
15630;DHT22;7914;50.842;0.166;2023-06-22T11:50:55;27.20;56.80
15630;DHT22;7914;50.842;0.166;2023-06-22T11:53:24;27.20;54.10
15630;DHT22;7914;50.842;0.166;2023-06-22T11:55:50;26.80;55.80
15630;DHT22;7914;50.842;0.166;2023-06-22T11:58:16;26.80;53.50
15630;DHT22;7914;50.842;0.166;2023-06-22T12:00:42;26.80;55.60
15630;DHT22;7914;50.842;0.166;2023-06-22T12:03:08;27.00;56.60
15630;DHT22;7914;50.842;0.166;2023-06-22T12:05:34;27.20;54.70
15630;DHT22;7914;50.842;0.166;2023-06-22T12:08:01;27.30;56.50
15630;DHT22;7914;50.842;0.166;2023-06-22T12:10:26;27.20;55.80
15630;DHT22;7914;50.842;0.166;2023-06-22T12:12:54;27.30;53.30
15630;DHT22;7914;50.842;0.166;2023-06-22T12:15:20;27.10;56.20
15630;DHT22;7914;50.842;0.166;2023-06-22T12:17:46;26.60;61.20
15630;DHT22;7914;50.842;0.166;2023-06-22T12:20:13;26.30;63.70
15630;DHT22;7914;50.842;0.166;2023-06-22T12:22:40;26.50;61.10
15630;DHT22;7914;50.842;0.166;2023-06-22T12:25:07;27.00;61.80
15630;DHT22;7914;50.842;0.166;2023-06-22T12:27:33;27.00;62.40
15630;DHT22;7914;50.842;0.166;2023-06-22T12:29:59;27.10;62.30
15630;DHT22;7914;50.842;0.166;2023-06-22T12:32:25;27.10;63.90
15630;DHT22;7914;50.842;0.166;2023-06-22T12:34:51;27.20;64.30
15630;DHT22;7914;50.842;0.166;2023-06-22T12:37:17;27.20;62.50
15630;DHT22;7914;50.842;0.166;2023-06-22T12:39:43;27.30;63.70
15630;DHT22;7914;50.842;0.166;2023-06-22T12:42:09;27.30;64.30
15630;DHT22;7914;50.842;0.166;2023-06-22T12:44:38;27.40;62.50
15630;DHT22;7914;50.842;0.166;2023-06-22T12:47:05;27.20;64.90
15630;DHT22;7914;50.842;0.166;2023-06-22T12:49:31;27.00;66.00
15630;DHT22;7914;50.842;0.166;2023-06-22T12:51:57;27.00;66.80
15630;DHT22;7914;50.842;0.166;2023-06-22T12:54:22;27.00;67.40
15630;DHT22;7914;50.842;0.166;2023-06-22T12:56:50;27.20;68.40
15630;DHT22;7914;50.842;0.166;2023-06-22T12:59:16;27.20;67.40
15630;DHT22;7914;50.842;0.166;2023-06-22T13:01:43;27.20;67.00
15630;DHT22;7914;50.842;0.166;2023-06-22T13:04:11;27.20;66.20
15630;DHT22;7914;50.842;0.166;2023-06-22T13:06:40;26.90;66.80
15630;DHT22;7914;50.842;0.166;2023-06-22T13:09:06;26.90;67.80
15630;DHT22;7914;50.842;0.166;2023-06-22T13:11:32;26.90;66.70
15630;DHT22;7914;50.842;0.166;2023-06-22T13:13:57;26.80;68.70
15630;DHT22;7914;50.842;0.166;2023-06-22T13:16:23;26.80;68.90
15630;DHT22;7914;50.842;0.166;2023-06-22T13:18:49;26.80;68.70
15630;DHT22;7914;50.842;0.166;2023-06-22T13:21:14;26.80;67.10
15630;DHT22;7914;50.842;0.166;2023-06-22T13:23:40;26.70;68.00
15630;DHT22;7914;50.842;0.166;2023-06-22T13:26:06;26.80;66.70
15630;DHT22;7914;50.842;0.166;2023-06-22T13:28:31;26.60;67.20
15630;DHT22;7914;50.842;0.166;2023-06-22T13:30:57;26.40;68.40
15630;DHT22;7914;50.842;0.166;2023-06-22T13:33:23;26.40;67.50
15630;DHT22;7914;50.842;0.166;2023-06-22T13:35:49;26.50;69.20
15630;DHT22;7914;50.842;0.166;2023-06-22T13:38:15;26.50;69.70
15630;DHT22;7914;50.842;0.166;2023-06-22T13:40:41;26.50;69.00
15630;DHT22;7914;50.842;0.166;2023-06-22T13:43:06;26.40;69.90
15630;DHT22;7914;50.842;0.166;2023-06-22T13:45:32;26.40;69.30
15630;DHT22;7914;50.842;0.166;2023-06-22T13:47:58;26.20;68.80
15630;DHT22;7914;50.842;0.166;2023-06-22T13:50:24;26.20;68.40
15630;DHT22;7914;50.842;0.166;2023-06-22T13:52:50;26.20;69.20
15630;DHT22;7914;50.842;0.166;2023-06-22T13:55:16;26.20;70.20
15630;DHT22;7914;50.842;0.166;2023-06-22T13:57:42;26.20;70.50
15630;DHT22;7914;50.842;0.166;2023-06-22T14:00:08;26.20;69.30
15630;DHT22;7914;50.842;0.166;2023-06-22T14:02:34;26.20;71.20
15630;DHT22;7914;50.842;0.166;2023-06-22T14:05:00;26.10;70.80
15630;DHT22;7914;50.842;0.166;2023-06-22T14:07:27;26.10;69.90
15630;DHT22;7914;50.842;0.166;2023-06-22T14:09:53;26.00;70.70
15630;DHT22;7914;50.842;0.166;2023-06-22T14:12:19;26.00;69.90
15630;DHT22;7914;50.842;0.166;2023-06-22T14:14:45;26.00;70.70
15630;DHT22;7914;50.842;0.166;2023-06-22T14:17:11;26.00;70.30
15630;DHT22;7914;50.842;0.166;2023-06-22T14:19:36;26.00;70.90
15630;DHT22;7914;50.842;0.166;2023-06-22T14:22:03;26.00;70.70
15630;DHT22;7914;50.842;0.166;2023-06-22T14:24:29;26.00;68.10
15630;DHT22;7914;50.842;0.166;2023-06-22T14:26:55;25.90;67.90
15630;DHT22;7914;50.842;0.166;2023-06-22T14:29:21;25.50;68.30
15630;DHT22;7914;50.842;0.166;2023-06-22T14:31:47;25.40;69.50
15630;DHT22;7914;50.842;0.166;2023-06-22T14:34:14;25.40;69.00
15630;DHT22;7914;50.842;0.166;2023-06-22T14:36:40;25.30;69.10
15630;DHT22;7914;50.842;0.166;2023-06-22T14:39:06;25.30;70.20
15630;DHT22;7914;50.842;0.166;2023-06-22T14:41:31;25.10;69.50
15630;DHT22;7914;50.842;0.166;2023-06-22T14:43:57;25.20;69.90
15630;DHT22;7914;50.842;0.166;2023-06-22T14:46:23;25.20;69.60
15630;DHT22;7914;50.842;0.166;2023-06-22T14:48:49;25.00;69.50
15630;DHT22;7914;50.842;0.166;2023-06-22T14:51:14;25.10;69.80
15630;DHT22;7914;50.842;0.166;2023-06-22T14:53:43;25.10;69.60
15630;DHT22;7914;50.842;0.166;2023-06-22T14:56:09;25.00;70.00
15630;DHT22;7914;50.842;0.166;2023-06-22T14:58:34;25.10;69.20
15630;DHT22;7914;50.842;0.166;2023-06-22T15:01:04;25.00;70.10
15630;DHT22;7914;50.842;0.166;2023-06-22T15:03:34;24.80;70.00
15630;DHT22;7914;50.842;0.166;2023-06-22T15:06:01;24.80;71.10
15630;DHT22;7914;50.842;0.166;2023-06-22T15:08:27;24.80;70.50
15630;DHT22;7914;50.842;0.166;2023-06-22T15:10:53;24.80;71.20
15630;DHT22;7914;50.842;0.166;2023-06-22T15:13:20;24.80;69.40
15630;DHT22;7914;50.842;0.166;2023-06-22T15:15:46;24.70;70.20
15630;DHT22;7914;50.842;0.166;2023-06-22T15:18:16;24.70;71.10
15630;DHT22;7914;50.842;0.166;2023-06-22T15:20:42;24.70;72.50
15630;DHT22;7914;50.842;0.166;2023-06-22T15:23:12;24.80;71.00
15630;DHT22;7914;50.842;0.166;2023-06-22T15:25:38;24.90;71.20
15630;DHT22;7914;50.842;0.166;2023-06-22T15:28:04;25.00;70.30
15630;DHT22;7914;50.842;0.166;2023-06-22T15:30:29;25.10;69.70
15630;DHT22;7914;50.842;0.166;2023-06-22T15:32:57;25.00;69.30
15630;DHT22;7914;50.842;0.166;2023-06-22T15:35:23;25.00;69.10
15630;DHT22;7914;50.842;0.166;2023-06-22T15:37:49;24.90;68.20
15630;DHT22;7914;50.842;0.166;2023-06-22T15:40:16;24.80;68.70
15630;DHT22;7914;50.842;0.166;2023-06-22T15:42:42;24.60;69.20
15630;DHT22;7914;50.842;0.166;2023-06-22T15:45:09;24.60;70.10